sensor_id;sensor_type;location;lat;lon;timestamp;P1;durP1;ratioP1;P2;durP2;ratioP2
48777;SDS011;34578;0.000;0.000;2023-05-08T00:02:11;1.90;;;1.57;;
48777;SDS011;34578;0.000;0.000;2023-05-08T00:07:11;2.07;;;1.57;;
48777;SDS011;34578;0.000;0.000;2023-05-08T00:12:12;2.50;;;1.63;;
48777;SDS011;34578;0.000;0.000;2023-05-08T00:17:12;5.28;;;2.38;;
48777;SDS011;34578;0.000;0.000;2023-05-08T00:22:13;2.77;;;1.80;;
48777;SDS011;34578;0.000;0.000;2023-05-08T00:27:13;2.20;;;1.23;;
48777;SDS011;34578;0.000;0.000;2023-05-08T00:32:14;1.38;;;1.27;;
48777;SDS011;34578;0.000;0.000;2023-05-08T00:37:15;2.28;;;1.40;;
48777;SDS011;34578;0.000;0.000;2023-05-08T00:42:15;3.58;;;1.38;;
48777;SDS011;34578;0.000;0.000;2023-05-08T00:47:16;1.77;;;1.40;;
48777;SDS011;34578;0.000;0.000;2023-05-08T00:52:16;2.40;;;1.50;;
48777;SDS011;34578;0.000;0.000;2023-05-08T00:57:18;2.63;;;1.13;;
48777;SDS011;34578;0.000;0.000;2023-05-08T01:02:21;3.15;;;1.52;;
48777;SDS011;34578;0.000;0.000;2023-05-08T01:07:24;1.48;;;1.15;;
48777;SDS011;34578;0.000;0.000;2023-05-08T01:12:28;2.77;;;1.47;;
48777;SDS011;34578;0.000;0.000;2023-05-08T01:28:27;3.05;;;1.50;;
48777;SDS011;34578;0.000;0.000;2023-05-08T01:34:10;1.60;;;1.00;;
48777;SDS011;34578;0.000;0.000;2023-05-08T01:39:18;1.60;;;1.00;;
48777;SDS011;34578;0.000;0.000;2023-05-08T01:44:23;2.17;;;1.30;;
48777;SDS011;34578;0.000;0.000;2023-05-08T01:49:37;3.40;;;1.20;;
48777;SDS011;34578;0.000;0.000;2023-05-08T01:54:42;2.00;;;1.20;;
48777;SDS011;34578;0.000;0.000;2023-05-08T01:59:47;2.00;;;1.33;;
48777;SDS011;34578;0.000;0.000;2023-05-08T02:04:51;2.55;;;1.50;;
48777;SDS011;34578;0.000;0.000;2023-05-08T02:09:52;2.15;;;1.38;;
48777;SDS011;34578;0.000;0.000;2023-05-08T02:14:54;1.85;;;1.30;;
48777;SDS011;34578;0.000;0.000;2023-05-08T02:19:57;3.35;;;1.88;;
48777;SDS011;34578;0.000;0.000;2023-05-08T02:24:59;1.65;;;1.30;;
48777;SDS011;34578;0.000;0.000;2023-05-08T02:30:00;1.83;;;1.40;;
48777;SDS011;34578;0.000;0.000;2023-05-08T02:35:01;1.27;;;0.80;;
48777;SDS011;34578;0.000;0.000;2023-05-08T02:40:03;1.13;;;0.93;;
48777;SDS011;34578;0.000;0.000;2023-05-08T02:45:08;2.28;;;1.50;;
48777;SDS011;34578;0.000;0.000;2023-05-08T02:50:19;2.22;;;1.45;;
48777;SDS011;34578;0.000;0.000;2023-05-08T03:00:44;1.48;;;1.10;;
48777;SDS011;34578;0.000;0.000;2023-05-08T03:05:55;1.73;;;1.20;;
48777;SDS011;34578;0.000;0.000;2023-05-08T03:11:00;1.65;;;0.98;;
48777;SDS011;34578;0.000;0.000;2023-05-08T03:16:06;1.30;;;1.20;;
48777;SDS011;34578;0.000;0.000;2023-05-08T03:21:12;2.05;;;1.00;;
48777;SDS011;34578;0.000;0.000;2023-05-08T03:26:18;1.60;;;1.20;;
48777;SDS011;34578;0.000;0.000;2023-05-08T03:31:20;1.65;;;1.38;;
48777;SDS011;34578;0.000;0.000;2023-05-08T03:36:25;1.73;;;1.10;;
48777;SDS011;34578;0.000;0.000;2023-05-08T03:41:26;1.45;;;0.98;;
48777;SDS011;34578;0.000;0.000;2023-05-08T03:46:27;2.70;;;1.10;;
48777;SDS011;34578;0.000;0.000;2023-05-08T03:51:29;1.30;;;1.20;;
48777;SDS011;34578;0.000;0.000;2023-05-08T03:56:30;1.88;;;1.15;;
48777;SDS011;34578;0.000;0.000;2023-05-08T04:01:37;1.38;;;1.05;;
48777;SDS011;34578;0.000;0.000;2023-05-08T04:06:45;1.23;;;1.00;;
48777;SDS011;34578;0.000;0.000;2023-05-08T04:12:04;1.73;;;1.10;;
48777;SDS011;34578;0.000;0.000;2023-05-08T04:17:08;2.97;;;1.52;;
48777;SDS011;34578;0.000;0.000;2023-05-08T04:22:11;1.27;;;1.17;;
48777;SDS011;34578;0.000;0.000;2023-05-08T04:27:14;1.08;;;0.98;;
48777;SDS011;34578;0.000;0.000;2023-05-08T04:32:15;1.00;;;0.90;;
48777;SDS011;34578;0.000;0.000;2023-05-08T04:37:26;5.72;;;1.27;;
48777;SDS011;34578;0.000;0.000;2023-05-08T04:42:30;4.03;;;1.10;;
48777;SDS011;34578;0.000;0.000;2023-05-08T04:47:33;3.65;;;1.20;;
48777;SDS011;34578;0.000;0.000;2023-05-08T04:52:35;3.25;;;1.10;;
48777;SDS011;34578;0.000;0.000;2023-05-08T04:57:35;11.07;;;1.77;;
48777;SDS011;34578;0.000;0.000;2023-05-08T05:02:36;4.23;;;1.40;;
48777;SDS011;34578;0.000;0.000;2023-05-08T05:07:36;5.65;;;1.42;;
48777;SDS011;34578;0.000;0.000;2023-05-08T05:12:37;5.93;;;1.33;;
48777;SDS011;34578;0.000;0.000;2023-05-08T05:17:38;4.70;;;1.08;;
48777;SDS011;34578;0.000;0.000;2023-05-08T05:22:38;7.35;;;1.60;;
48777;SDS011;34578;0.000;0.000;2023-05-08T05:27:39;6.50;;;1.20;;
48777;SDS011;34578;0.000;0.000;2023-05-08T05:32:41;4.85;;;1.45;;
48777;SDS011;34578;0.000;0.000;2023-05-08T05:37:42;4.55;;;1.23;;
48777;SDS011;34578;0.000;0.000;2023-05-08T05:42:47;3.10;;;1.00;;
48777;SDS011;34578;0.000;0.000;2023-05-08T05:47:49;1.02;;;0.85;;
48777;SDS011;34578;0.000;0.000;2023-05-08T05:52:51;4.25;;;0.98;;
48777;SDS011;34578;0.000;0.000;2023-05-08T05:57:53;2.05;;;1.30;;
48777;SDS011;34578;0.000;0.000;2023-05-08T06:02:54;4.95;;;1.45;;
48777;SDS011;34578;0.000;0.000;2023-05-08T06:07:54;6.38;;;1.80;;
48777;SDS011;34578;0.000;0.000;2023-05-08T06:12:54;4.03;;;1.10;;
48777;SDS011;34578;0.000;0.000;2023-05-08T06:17:57;3.17;;;0.90;;
48777;SDS011;34578;0.000;0.000;2023-05-08T06:22:57;2.28;;;0.90;;
48777;SDS011;34578;0.000;0.000;2023-05-08T06:27:58;2.33;;;1.10;;
48777;SDS011;34578;0.000;0.000;2023-05-08T06:32:58;1.73;;;0.80;;
48777;SDS011;34578;0.000;0.000;2023-05-08T06:37:59;2.73;;;0.87;;
48777;SDS011;34578;0.000;0.000;2023-05-08T06:43:00;3.58;;;0.88;;
48777;SDS011;34578;0.000;0.000;2023-05-08T06:48:00;0.83;;;0.70;;
48777;SDS011;34578;0.000;0.000;2023-05-08T06:53:01;0.83;;;0.73;;
48777;SDS011;34578;0.000;0.000;2023-05-08T06:58:01;1.30;;;0.80;;
48777;SDS011;34578;0.000;0.000;2023-05-08T07:03:02;3.42;;;0.90;;
48777;SDS011;34578;0.000;0.000;2023-05-08T07:08:02;4.13;;;0.93;;
48777;SDS011;34578;0.000;0.000;2023-05-08T07:13:03;2.33;;;1.02;;
48777;SDS011;34578;0.000;0.000;2023-05-08T07:18:03;1.33;;;0.70;;
48777;SDS011;34578;0.000;0.000;2023-05-08T07:23:04;1.83;;;0.80;;
48777;SDS011;34578;0.000;0.000;2023-05-08T07:28:06;1.70;;;0.90;;
48777;SDS011;34578;0.000;0.000;2023-05-08T07:33:07;1.95;;;1.10;;
48777;SDS011;34578;0.000;0.000;2023-05-08T07:38:07;3.60;;;0.70;;
48777;SDS011;34578;0.000;0.000;2023-05-08T07:43:07;0.97;;;0.60;;
48777;SDS011;34578;0.000;0.000;2023-05-08T07:48:08;0.47;;;0.45;;
48777;SDS011;34578;0.000;0.000;2023-05-08T07:53:09;1.25;;;0.80;;
48777;SDS011;34578;0.000;0.000;2023-05-08T07:58:09;1.58;;;0.93;;
48777;SDS011;34578;0.000;0.000;2023-05-08T08:03:09;1.10;;;0.60;;
48777;SDS011;34578;0.000;0.000;2023-05-08T08:08:10;3.27;;;1.40;;
48777;SDS011;34578;0.000;0.000;2023-05-08T08:13:10;1.35;;;0.80;;
48777;SDS011;34578;0.000;0.000;2023-05-08T08:18:11;3.00;;;1.00;;
48777;SDS011;34578;0.000;0.000;2023-05-08T08:23:12;2.55;;;0.93;;
48777;SDS011;34578;0.000;0.000;2023-05-08T08:28:14;1.63;;;0.68;;
48777;SDS011;34578;0.000;0.000;2023-05-08T08:33:14;2.40;;;1.00;;
48777;SDS011;34578;0.000;0.000;2023-05-08T08:38:15;2.20;;;0.93;;
48777;SDS011;34578;0.000;0.000;2023-05-08T08:43:15;0.90;;;0.57;;
48777;SDS011;34578;0.000;0.000;2023-05-08T08:48:16;0.53;;;0.50;;
48777;SDS011;34578;0.000;0.000;2023-05-08T08:53:24;1.13;;;0.70;;
48777;SDS011;34578;0.000;0.000;2023-05-08T09:03:32;3.03;;;0.90;;
48777;SDS011;34578;0.000;0.000;2023-05-08T09:08:33;1.13;;;1.02;;
48777;SDS011;34578;0.000;0.000;2023-05-08T09:13:36;2.30;;;0.98;;
48777;SDS011;34578;0.000;0.000;2023-05-08T09:18:36;1.67;;;1.20;;
48777;SDS011;34578;0.000;0.000;2023-05-08T09:23:53;2.17;;;0.83;;
48777;SDS011;34578;0.000;0.000;2023-05-08T09:34:09;2.00;;;0.98;;
48777;SDS011;34578;0.000;0.000;2023-05-08T09:39:10;0.75;;;0.45;;
48777;SDS011;34578;0.000;0.000;2023-05-08T09:44:20;1.10;;;0.82;;
48777;SDS011;34578;0.000;0.000;2023-05-08T09:49:23;0.82;;;0.50;;
48777;SDS011;34578;0.000;0.000;2023-05-08T09:54:23;0.60;;;0.60;;
48777;SDS011;34578;0.000;0.000;2023-05-08T09:59:24;1.97;;;0.63;;
48777;SDS011;34578;0.000;0.000;2023-05-08T10:04:32;0.88;;;0.60;;
48777;SDS011;34578;0.000;0.000;2023-05-08T10:09:33;0.93;;;0.63;;
48777;SDS011;34578;0.000;0.000;2023-05-08T10:14:34;1.87;;;0.83;;
48777;SDS011;34578;0.000;0.000;2023-05-08T10:19:34;0.83;;;0.60;;
48777;SDS011;34578;0.000;0.000;2023-05-08T10:24:40;1.55;;;0.77;;
48777;SDS011;34578;0.000;0.000;2023-05-08T10:29:54;0.85;;;0.70;;
48777;SDS011;34578;0.000;0.000;2023-05-08T10:34:57;0.85;;;0.60;;
48777;SDS011;34578;0.000;0.000;2023-05-08T10:39:59;0.77;;;0.75;;
48777;SDS011;34578;0.000;0.000;2023-05-08T10:45:01;0.65;;;0.50;;
48777;SDS011;34578;0.000;0.000;2023-05-08T10:55:28;0.50;;;0.50;;
48777;SDS011;34578;0.000;0.000;2023-05-08T11:05:53;5.75;;;1.17;;
48777;SDS011;34578;0.000;0.000;2023-05-08T11:15:59;5.78;;;1.60;;
48777;SDS011;34578;0.000;0.000;2023-05-08T11:21:00;4.75;;;1.20;;
48777;SDS011;34578;0.000;0.000;2023-05-08T11:26:13;7.25;;;1.65;;
48777;SDS011;34578;0.000;0.000;2023-05-08T11:31:15;3.60;;;1.40;;
48777;SDS011;34578;0.000;0.000;2023-05-08T11:36:16;4.47;;;1.30;;
48777;SDS011;34578;0.000;0.000;2023-05-08T11:41:20;5.75;;;1.25;;
48777;SDS011;34578;0.000;0.000;2023-05-08T11:46:21;5.90;;;1.52;;
48777;SDS011;34578;0.000;0.000;2023-05-08T11:51:32;5.35;;;1.05;;
48777;SDS011;34578;0.000;0.000;2023-05-08T11:56:32;8.00;;;1.38;;
48777;SDS011;34578;0.000;0.000;2023-05-08T12:01:33;4.55;;;1.15;;
48777;SDS011;34578;0.000;0.000;2023-05-08T12:06:34;3.38;;;0.80;;
48777;SDS011;34578;0.000;0.000;2023-05-08T12:11:37;5.03;;;1.63;;
48777;SDS011;34578;0.000;0.000;2023-05-08T12:16:38;4.03;;;1.30;;
48777;SDS011;34578;0.000;0.000;2023-05-08T12:21:45;3.38;;;1.00;;
48777;SDS011;34578;0.000;0.000;2023-05-08T12:26:47;3.75;;;1.50;;
48777;SDS011;34578;0.000;0.000;2023-05-08T12:31:49;4.95;;;1.90;;
48777;SDS011;34578;0.000;0.000;2023-05-08T12:36:59;6.22;;;2.40;;
48777;SDS011;34578;0.000;0.000;2023-05-08T12:42:00;8.07;;;4.38;;
48777;SDS011;34578;0.000;0.000;2023-05-08T12:47:01;9.73;;;2.67;;
48777;SDS011;34578;0.000;0.000;2023-05-08T12:52:05;5.00;;;2.13;;
48777;SDS011;34578;0.000;0.000;2023-05-08T12:57:16;3.38;;;2.10;;
48777;SDS011;34578;0.000;0.000;2023-05-08T13:02:18;3.55;;;2.35;;
48777;SDS011;34578;0.000;0.000;2023-05-08T13:07:22;5.03;;;2.20;;
48777;SDS011;34578;0.000;0.000;2023-05-08T13:12:23;3.22;;;2.10;;
48777;SDS011;34578;0.000;0.000;2023-05-08T13:17:23;8.23;;;1.90;;
48777;SDS011;34578;0.000;0.000;2023-05-08T13:22:24;1.83;;;1.73;;
48777;SDS011;34578;0.000;0.000;2023-05-08T13:27:25;2.92;;;2.20;;
48777;SDS011;34578;0.000;0.000;2023-05-08T13:32:26;6.07;;;1.80;;
48777;SDS011;34578;0.000;0.000;2023-05-08T13:37:26;4.37;;;1.70;;
48777;SDS011;34578;0.000;0.000;2023-05-08T13:42:26;2.03;;;1.63;;
48777;SDS011;34578;0.000;0.000;2023-05-08T13:47:27;1.50;;;1.20;;
48777;SDS011;34578;0.000;0.000;2023-05-08T13:52:27;1.87;;;1.30;;
48777;SDS011;34578;0.000;0.000;2023-05-08T13:57:30;1.60;;;1.20;;
48777;SDS011;34578;0.000;0.000;2023-05-08T14:02:30;3.00;;;1.10;;
48777;SDS011;34578;0.000;0.000;2023-05-08T14:07:31;2.50;;;1.33;;
48777;SDS011;34578;0.000;0.000;2023-05-08T14:12:31;5.60;;;1.67;;
48777;SDS011;34578;0.000;0.000;2023-05-08T14:17:35;2.70;;;1.23;;
48777;SDS011;34578;0.000;0.000;2023-05-08T14:22:35;3.00;;;1.20;;
48777;SDS011;34578;0.000;0.000;2023-05-08T14:27:35;1.37;;;1.10;;
48777;SDS011;34578;0.000;0.000;2023-05-08T14:32:36;2.47;;;1.38;;
48777;SDS011;34578;0.000;0.000;2023-05-08T14:37:36;3.60;;;1.60;;
48777;SDS011;34578;0.000;0.000;2023-05-08T14:42:36;12.10;;;2.23;;
48777;SDS011;34578;0.000;0.000;2023-05-08T14:47:37;4.93;;;2.13;;
48777;SDS011;34578;0.000;0.000;2023-05-08T14:52:38;12.48;;;2.65;;
48777;SDS011;34578;0.000;0.000;2023-05-08T14:57:38;7.37;;;2.30;;
48777;SDS011;34578;0.000;0.000;2023-05-08T15:02:39;9.63;;;1.98;;
48777;SDS011;34578;0.000;0.000;2023-05-08T15:07:39;15.18;;;2.63;;
48777;SDS011;34578;0.000;0.000;2023-05-08T15:12:40;14.77;;;3.65;;
48777;SDS011;34578;0.000;0.000;2023-05-08T15:17:40;13.32;;;2.45;;
48777;SDS011;34578;0.000;0.000;2023-05-08T15:22:41;11.63;;;2.80;;
48777;SDS011;34578;0.000;0.000;2023-05-08T15:27:41;10.90;;;2.40;;
48777;SDS011;34578;0.000;0.000;2023-05-08T15:32:42;14.47;;;2.57;;
48777;SDS011;34578;0.000;0.000;2023-05-08T15:37:42;10.43;;;2.17;;
48777;SDS011;34578;0.000;0.000;2023-05-08T15:42:42;6.30;;;1.40;;
48777;SDS011;34578;0.000;0.000;2023-05-08T15:47:43;3.77;;;1.33;;
48777;SDS011;34578;0.000;0.000;2023-05-08T15:52:43;6.83;;;1.20;;
48777;SDS011;34578;0.000;0.000;2023-05-08T15:57:43;6.43;;;1.40;;
48777;SDS011;34578;0.000;0.000;2023-05-08T16:02:44;5.78;;;1.30;;
48777;SDS011;34578;0.000;0.000;2023-05-08T16:07:46;2.78;;;0.90;;
48777;SDS011;34578;0.000;0.000;2023-05-08T16:12:49;6.30;;;3.53;;
48777;SDS011;34578;0.000;0.000;2023-05-08T16:17:50;4.03;;;0.90;;
48777;SDS011;34578;0.000;0.000;2023-05-08T16:22:54;3.90;;;1.40;;
48777;SDS011;34578;0.000;0.000;2023-05-08T16:27:54;5.72;;;1.77;;
48777;SDS011;34578;0.000;0.000;2023-05-08T16:32:55;9.33;;;1.13;;
48777;SDS011;34578;0.000;0.000;2023-05-08T16:37:55;1.50;;;1.20;;
48777;SDS011;34578;0.000;0.000;2023-05-08T16:42:58;4.35;;;1.10;;
48777;SDS011;34578;0.000;0.000;2023-05-08T16:47:59;2.40;;;1.13;;
48777;SDS011;34578;0.000;0.000;2023-05-08T16:52:59;1.67;;;0.87;;
48777;SDS011;34578;0.000;0.000;2023-05-08T16:58:00;4.82;;;1.23;;
48777;SDS011;34578;0.000;0.000;2023-05-08T17:03:00;7.30;;;1.27;;
48777;SDS011;34578;0.000;0.000;2023-05-08T17:08:00;2.57;;;0.83;;
48777;SDS011;34578;0.000;0.000;2023-05-08T17:13:01;4.27;;;1.30;;
48777;SDS011;34578;0.000;0.000;2023-05-08T17:18:01;2.03;;;0.80;;
48777;SDS011;34578;0.000;0.000;2023-05-08T17:23:02;8.10;;;0.90;;
48777;SDS011;34578;0.000;0.000;2023-05-08T17:28:02;3.93;;;1.00;;
48777;SDS011;34578;0.000;0.000;2023-05-08T17:33:03;2.97;;;0.63;;
48777;SDS011;34578;0.000;0.000;2023-05-08T17:38:03;2.80;;;1.57;;
48777;SDS011;34578;0.000;0.000;2023-05-08T17:43:04;1.97;;;0.70;;
48777;SDS011;34578;0.000;0.000;2023-05-08T17:48:05;3.45;;;0.60;;
48777;SDS011;34578;0.000;0.000;2023-05-08T17:53:06;4.97;;;0.90;;
48777;SDS011;34578;0.000;0.000;2023-05-08T17:58:06;6.25;;;1.25;;
48777;SDS011;34578;0.000;0.000;2023-05-08T18:03:06;4.07;;;0.97;;
48777;SDS011;34578;0.000;0.000;2023-05-08T18:08:07;7.72;;;1.33;;
48777;SDS011;34578;0.000;0.000;2023-05-08T18:13:08;2.85;;;0.93;;
48777;SDS011;34578;0.000;0.000;2023-05-08T18:18:08;5.83;;;1.50;;
48777;SDS011;34578;0.000;0.000;2023-05-08T18:23:09;1.60;;;0.93;;
48777;SDS011;34578;0.000;0.000;2023-05-08T18:28:09;4.43;;;1.10;;
48777;SDS011;34578;0.000;0.000;2023-05-08T18:33:10;3.50;;;0.80;;
48777;SDS011;34578;0.000;0.000;2023-05-08T18:38:10;2.47;;;0.73;;
48777;SDS011;34578;0.000;0.000;2023-05-08T18:43:11;2.53;;;1.10;;
48777;SDS011;34578;0.000;0.000;2023-05-08T18:48:11;1.00;;;0.70;;
48777;SDS011;34578;0.000;0.000;2023-05-08T18:53:11;3.93;;;0.63;;
48777;SDS011;34578;0.000;0.000;2023-05-08T18:58:13;1.98;;;0.70;;
48777;SDS011;34578;0.000;0.000;2023-05-08T19:03:13;1.53;;;0.70;;
48777;SDS011;34578;0.000;0.000;2023-05-08T19:08:14;2.47;;;1.23;;
48777;SDS011;34578;0.000;0.000;2023-05-08T19:13:14;1.40;;;0.65;;
48777;SDS011;34578;0.000;0.000;2023-05-08T19:18:15;3.63;;;0.80;;
48777;SDS011;34578;0.000;0.000;2023-05-08T19:23:17;1.85;;;0.82;;
48777;SDS011;34578;0.000;0.000;2023-05-08T19:28:17;2.17;;;1.20;;
48777;SDS011;34578;0.000;0.000;2023-05-08T19:33:17;2.80;;;1.43;;
48777;SDS011;34578;0.000;0.000;2023-05-08T19:38:19;2.17;;;0.70;;
48777;SDS011;34578;0.000;0.000;2023-05-08T19:43:19;1.70;;;0.60;;
48777;SDS011;34578;0.000;0.000;2023-05-08T19:48:20;1.00;;;0.50;;
48777;SDS011;34578;0.000;0.000;2023-05-08T19:53:21;1.08;;;0.50;;
48777;SDS011;34578;0.000;0.000;2023-05-08T19:58:22;0.57;;;0.43;;
48777;SDS011;34578;0.000;0.000;2023-05-08T20:03:22;4.17;;;0.60;;
48777;SDS011;34578;0.000;0.000;2023-05-08T20:08:23;0.85;;;0.50;;
48777;SDS011;34578;0.000;0.000;2023-05-08T20:13:23;1.40;;;0.77;;
48777;SDS011;34578;0.000;0.000;2023-05-08T20:18:24;3.03;;;0.70;;
48777;SDS011;34578;0.000;0.000;2023-05-08T20:23:24;1.00;;;0.57;;
48777;SDS011;34578;0.000;0.000;2023-05-08T20:28:25;1.93;;;0.60;;
48777;SDS011;34578;0.000;0.000;2023-05-08T20:33:25;6.33;;;1.00;;
48777;SDS011;34578;0.000;0.000;2023-05-08T20:38:25;2.53;;;0.70;;
48777;SDS011;34578;0.000;0.000;2023-05-08T20:43:26;2.13;;;1.00;;
48777;SDS011;34578;0.000;0.000;2023-05-08T20:48:26;2.95;;;1.20;;
48777;SDS011;34578;0.000;0.000;2023-05-08T20:53:28;1.42;;;0.55;;
48777;SDS011;34578;0.000;0.000;2023-05-08T20:58:28;2.42;;;0.77;;
48777;SDS011;34578;0.000;0.000;2023-05-08T21:03:29;1.58;;;0.60;;
48777;SDS011;34578;0.000;0.000;2023-05-08T21:08:29;2.43;;;1.00;;
48777;SDS011;34578;0.000;0.000;2023-05-08T21:13:30;1.03;;;0.40;;
48777;SDS011;34578;0.000;0.000;2023-05-08T21:18:31;1.25;;;0.50;;
48777;SDS011;34578;0.000;0.000;2023-05-08T21:23:31;0.43;;;0.43;;
48777;SDS011;34578;0.000;0.000;2023-05-08T21:28:31;1.57;;;0.50;;
48777;SDS011;34578;0.000;0.000;2023-05-08T21:33:33;1.48;;;0.80;;
48777;SDS011;34578;0.000;0.000;2023-05-08T21:38:33;1.75;;;0.80;;
48777;SDS011;34578;0.000;0.000;2023-05-08T21:43:34;1.13;;;0.60;;
48777;SDS011;34578;0.000;0.000;2023-05-08T21:48:35;1.83;;;0.95;;
48777;SDS011;34578;0.000;0.000;2023-05-08T21:53:35;1.05;;;0.70;;
48777;SDS011;34578;0.000;0.000;2023-05-08T21:58:36;1.70;;;0.80;;
48777;SDS011;34578;0.000;0.000;2023-05-08T22:03:36;1.80;;;0.90;;
48777;SDS011;34578;0.000;0.000;2023-05-08T22:08:37;2.90;;;1.00;;
48777;SDS011;34578;0.000;0.000;2023-05-08T22:13:37;1.73;;;0.73;;
48777;SDS011;34578;0.000;0.000;2023-05-08T22:18:37;0.80;;;0.40;;
48777;SDS011;34578;0.000;0.000;2023-05-08T22:23:38;1.70;;;0.33;;
48777;SDS011;34578;0.000;0.000;2023-05-08T22:28:38;0.30;;;0.30;;
48777;SDS011;34578;0.000;0.000;2023-05-08T22:33:39;0.82;;;0.70;;
48777;SDS011;34578;0.000;0.000;2023-05-08T22:38:39;1.40;;;1.05;;
48777;SDS011;34578;0.000;0.000;2023-05-08T22:43:39;1.47;;;0.80;;
48777;SDS011;34578;0.000;0.000;2023-05-08T22:48:40;1.33;;;0.65;;
48777;SDS011;34578;0.000;0.000;2023-05-08T22:53:41;1.15;;;0.60;;
48777;SDS011;34578;0.000;0.000;2023-05-08T22:58:41;1.70;;;0.77;;
48777;SDS011;34578;0.000;0.000;2023-05-08T23:03:41;0.60;;;0.60;;
48777;SDS011;34578;0.000;0.000;2023-05-08T23:08:41;1.13;;;0.60;;
48777;SDS011;34578;0.000;0.000;2023-05-08T23:13:42;1.23;;;0.60;;
48777;SDS011;34578;0.000;0.000;2023-05-08T23:18:42;2.37;;;0.50;;
48777;SDS011;34578;0.000;0.000;2023-05-08T23:23:43;1.05;;;0.65;;
48777;SDS011;34578;0.000;0.000;2023-05-08T23:28:43;1.10;;;0.60;;
48777;SDS011;34578;0.000;0.000;2023-05-08T23:33:44;0.37;;;0.30;;
48777;SDS011;34578;0.000;0.000;2023-05-08T23:38:45;0.52;;;0.47;;
48777;SDS011;34578;0.000;0.000;2023-05-08T23:43:45;0.77;;;0.43;;
48777;SDS011;34578;0.000;0.000;2023-05-08T23:48:45;0.87;;;0.50;;
48777;SDS011;34578;0.000;0.000;2023-05-08T23:53:46;1.60;;;0.50;;
48777;SDS011;34578;0.000;0.000;2023-05-08T23:58:46;0.30;;;0.30;;
